sensor_id;sensor_type;location;lat;lon;timestamp;temperature;humidity
35325;DHT22;35135;47.510;19.036;2023-02-18T00:01:20;20.40;50.80
35325;DHT22;35135;47.510;19.036;2023-02-18T00:03:47;20.40;50.80
35325;DHT22;35135;47.510;19.036;2023-02-18T00:06:24;20.50;51.00
35325;DHT22;35135;47.510;19.036;2023-02-18T00:08:51;20.50;50.90
35325;DHT22;35135;47.510;19.036;2023-02-18T00:11:18;20.50;50.70
35325;DHT22;35135;47.510;19.036;2023-02-18T00:13:49;20.40;50.70
35325;DHT22;35135;47.510;19.036;2023-02-18T00:16:15;20.40;50.80
35325;DHT22;35135;47.510;19.036;2023-02-18T00:18:41;20.40;50.80
35325;DHT22;35135;47.510;19.036;2023-02-18T00:21:07;20.50;50.70
35325;DHT22;35135;47.510;19.036;2023-02-18T00:23:33;20.40;50.80
35325;DHT22;35135;47.510;19.036;2023-02-18T00:26:05;20.40;50.80
35325;DHT22;35135;47.510;19.036;2023-02-18T00:28:31;20.40;50.90
35325;DHT22;35135;47.510;19.036;2023-02-18T00:30:57;20.40;50.70
35325;DHT22;35135;47.510;19.036;2023-02-18T00:33:23;20.40;50.80
35325;DHT22;35135;47.510;19.036;2023-02-18T00:35:48;20.50;50.70
35325;DHT22;35135;47.510;19.036;2023-02-18T00:38:15;20.40;50.70
35325;DHT22;35135;47.510;19.036;2023-02-18T00:40:41;20.40;50.80
35325;DHT22;35135;47.510;19.036;2023-02-18T00:43:07;20.50;50.80
35325;DHT22;35135;47.510;19.036;2023-02-18T00:45:33;20.40;50.80
35325;DHT22;35135;47.510;19.036;2023-02-18T00:47:59;20.40;50.80
35325;DHT22;35135;47.510;19.036;2023-02-18T00:50:24;20.50;50.80
35325;DHT22;35135;47.510;19.036;2023-02-18T00:52:50;20.50;50.80
35325;DHT22;35135;47.510;19.036;2023-02-18T00:55:16;20.40;50.60
35325;DHT22;35135;47.510;19.036;2023-02-18T00:57:41;20.50;50.80
35325;DHT22;35135;47.510;19.036;2023-02-18T01:00:07;20.40;50.60
35325;DHT22;35135;47.510;19.036;2023-02-18T01:02:33;20.40;50.80
35325;DHT22;35135;47.510;19.036;2023-02-18T01:05:00;20.40;50.70
35325;DHT22;35135;47.510;19.036;2023-02-18T01:07:26;20.50;50.70
35325;DHT22;35135;47.510;19.036;2023-02-18T01:09:51;20.40;50.70
35325;DHT22;35135;47.510;19.036;2023-02-18T01:12:18;20.40;50.70
35325;DHT22;35135;47.510;19.036;2023-02-18T01:14:43;20.50;50.70
35325;DHT22;35135;47.510;19.036;2023-02-18T01:17:09;20.50;50.70
35325;DHT22;35135;47.510;19.036;2023-02-18T01:19:35;20.40;50.70
35325;DHT22;35135;47.510;19.036;2023-02-18T01:22:01;20.40;50.80
35325;DHT22;35135;47.510;19.036;2023-02-18T01:24:26;20.40;50.70
35325;DHT22;35135;47.510;19.036;2023-02-18T01:26:52;20.40;50.90
35325;DHT22;35135;47.510;19.036;2023-02-18T01:29:18;20.40;50.80
35325;DHT22;35135;47.510;19.036;2023-02-18T01:31:43;20.50;50.80
35325;DHT22;35135;47.510;19.036;2023-02-18T01:34:09;20.40;50.70
35325;DHT22;35135;47.510;19.036;2023-02-18T01:36:35;20.40;50.60
35325;DHT22;35135;47.510;19.036;2023-02-18T01:39:00;20.50;50.70
35325;DHT22;35135;47.510;19.036;2023-02-18T01:41:26;20.50;50.90
35325;DHT22;35135;47.510;19.036;2023-02-18T01:44:21;20.40;51.30
35325;DHT22;35135;47.510;19.036;2023-02-18T01:46:47;20.40;50.70
35325;DHT22;35135;47.510;19.036;2023-02-18T01:49:34;20.40;50.60
35325;DHT22;35135;47.510;19.036;2023-02-18T01:52:09;20.40;50.50
35325;DHT22;35135;47.510;19.036;2023-02-18T01:55:03;20.40;50.50
35325;DHT22;35135;47.510;19.036;2023-02-18T01:57:34;20.40;50.50
35325;DHT22;35135;47.510;19.036;2023-02-18T02:00:12;20.40;50.50
35325;DHT22;35135;47.510;19.036;2023-02-18T02:02:44;20.40;50.50
35325;DHT22;35135;47.510;19.036;2023-02-18T02:05:10;20.40;50.60
35325;DHT22;35135;47.510;19.036;2023-02-18T02:07:36;20.50;50.50
35325;DHT22;35135;47.510;19.036;2023-02-18T02:10:04;20.40;50.40
35325;DHT22;35135;47.510;19.036;2023-02-18T02:18:07;20.50;50.50
35325;DHT22;35135;47.510;19.036;2023-02-18T02:47:58;20.50;50.40
35325;DHT22;35135;47.510;19.036;2023-02-18T02:53:25;20.40;50.40
35325;DHT22;35135;47.510;19.036;2023-02-18T02:55:51;20.40;50.30
35325;DHT22;35135;47.510;19.036;2023-02-18T02:58:19;20.40;50.40
35325;DHT22;35135;47.510;19.036;2023-02-18T03:06:34;20.40;50.20
35325;DHT22;35135;47.510;19.036;2023-02-18T03:11:45;20.40;50.30
35325;DHT22;35135;47.510;19.036;2023-02-18T03:14:26;20.50;50.20
35325;DHT22;35135;47.510;19.036;2023-02-18T03:17:07;20.40;50.30
35325;DHT22;35135;47.510;19.036;2023-02-18T03:19:46;20.40;50.30
35325;DHT22;35135;47.510;19.036;2023-02-18T03:22:17;20.40;50.30
35325;DHT22;35135;47.510;19.036;2023-02-18T03:24:55;20.50;50.30
35325;DHT22;35135;47.510;19.036;2023-02-18T03:29:52;20.50;50.20
35325;DHT22;35135;47.510;19.036;2023-02-18T03:32:20;20.40;50.10
35325;DHT22;35135;47.510;19.036;2023-02-18T03:34:54;20.50;50.10
35325;DHT22;35135;47.510;19.036;2023-02-18T03:37:21;20.50;50.10
35325;DHT22;35135;47.510;19.036;2023-02-18T03:39:51;20.50;50.20
35325;DHT22;35135;47.510;19.036;2023-02-18T03:42:18;20.50;50.20
35325;DHT22;35135;47.510;19.036;2023-02-18T03:44:44;20.40;50.10
35325;DHT22;35135;47.510;19.036;2023-02-18T03:47:11;20.40;50.10
35325;DHT22;35135;47.510;19.036;2023-02-18T03:49:36;20.40;50.20
35325;DHT22;35135;47.510;19.036;2023-02-18T03:52:02;20.50;50.20
35325;DHT22;35135;47.510;19.036;2023-02-18T03:54:28;20.40;50.00
35325;DHT22;35135;47.510;19.036;2023-02-18T03:56:54;20.50;50.20
35325;DHT22;35135;47.510;19.036;2023-02-18T03:59:19;20.40;50.10
35325;DHT22;35135;47.510;19.036;2023-02-18T04:01:45;20.50;50.20
35325;DHT22;35135;47.510;19.036;2023-02-18T04:04:11;20.50;50.10
35325;DHT22;35135;47.510;19.036;2023-02-18T04:06:36;20.50;50.20
35325;DHT22;35135;47.510;19.036;2023-02-18T04:09:02;20.50;50.10
35325;DHT22;35135;47.510;19.036;2023-02-18T04:11:34;20.40;50.10
35325;DHT22;35135;47.510;19.036;2023-02-18T04:14:00;20.40;50.10
35325;DHT22;35135;47.510;19.036;2023-02-18T04:16:26;20.40;50.00
35325;DHT22;35135;47.510;19.036;2023-02-18T04:18:51;20.50;50.10
35325;DHT22;35135;47.510;19.036;2023-02-18T04:21:17;20.40;50.00
35325;DHT22;35135;47.510;19.036;2023-02-18T04:23:42;20.50;50.10
35325;DHT22;35135;47.510;19.036;2023-02-18T04:26:08;20.50;50.00
35325;DHT22;35135;47.510;19.036;2023-02-18T04:28:34;20.50;50.00
35325;DHT22;35135;47.510;19.036;2023-02-18T04:30:59;20.50;50.00
35325;DHT22;35135;47.510;19.036;2023-02-18T04:33:25;20.40;49.90
35325;DHT22;35135;47.510;19.036;2023-02-18T04:35:51;20.50;50.00
35325;DHT22;35135;47.510;19.036;2023-02-18T04:38:16;20.50;50.00
35325;DHT22;35135;47.510;19.036;2023-02-18T04:40:42;20.50;49.90
35325;DHT22;35135;47.510;19.036;2023-02-18T04:43:08;20.40;49.90
35325;DHT22;35135;47.510;19.036;2023-02-18T04:45:33;20.50;49.90
35325;DHT22;35135;47.510;19.036;2023-02-18T04:47:59;20.50;50.00
35325;DHT22;35135;47.510;19.036;2023-02-18T04:50:25;20.50;50.00
35325;DHT22;35135;47.510;19.036;2023-02-18T04:52:50;20.50;49.90
35325;DHT22;35135;47.510;19.036;2023-02-18T04:55:16;20.50;49.90
35325;DHT22;35135;47.510;19.036;2023-02-18T04:57:42;20.50;49.90
35325;DHT22;35135;47.510;19.036;2023-02-18T05:00:09;20.50;49.90
35325;DHT22;35135;47.510;19.036;2023-02-18T05:02:37;20.50;49.80
35325;DHT22;35135;47.510;19.036;2023-02-18T05:05:03;20.50;49.90
35325;DHT22;35135;47.510;19.036;2023-02-18T05:07:29;20.50;49.90
35325;DHT22;35135;47.510;19.036;2023-02-18T05:09:54;20.50;49.80
35325;DHT22;35135;47.510;19.036;2023-02-18T05:12:20;20.50;49.80
35325;DHT22;35135;47.510;19.036;2023-02-18T05:14:46;20.50;49.90
35325;DHT22;35135;47.510;19.036;2023-02-18T05:17:11;20.50;49.90
35325;DHT22;35135;47.510;19.036;2023-02-18T05:19:37;20.50;49.90
35325;DHT22;35135;47.510;19.036;2023-02-18T05:22:03;20.50;49.90
35325;DHT22;35135;47.510;19.036;2023-02-18T05:24:28;20.50;49.90
35325;DHT22;35135;47.510;19.036;2023-02-18T05:26:54;20.50;49.80
35325;DHT22;35135;47.510;19.036;2023-02-18T05:29:19;20.50;49.80
35325;DHT22;35135;47.510;19.036;2023-02-18T05:31:45;20.50;49.90
35325;DHT22;35135;47.510;19.036;2023-02-18T05:34:11;20.50;49.90
35325;DHT22;35135;47.510;19.036;2023-02-18T05:36:36;20.50;49.70
35325;DHT22;35135;47.510;19.036;2023-02-18T05:39:02;20.50;49.70
35325;DHT22;35135;47.510;19.036;2023-02-18T05:41:28;20.50;49.70
35325;DHT22;35135;47.510;19.036;2023-02-18T05:43:54;20.50;49.80
35325;DHT22;35135;47.510;19.036;2023-02-18T05:46:38;20.50;49.80
35325;DHT22;35135;47.510;19.036;2023-02-18T05:49:04;20.50;49.80
35325;DHT22;35135;47.510;19.036;2023-02-18T05:51:30;20.50;49.80
35325;DHT22;35135;47.510;19.036;2023-02-18T05:53:56;20.50;49.80
35325;DHT22;35135;47.510;19.036;2023-02-18T05:56:21;20.50;49.70
35325;DHT22;35135;47.510;19.036;2023-02-18T05:58:47;20.50;49.70
35325;DHT22;35135;47.510;19.036;2023-02-18T06:01:13;20.50;49.70
35325;DHT22;35135;47.510;19.036;2023-02-18T06:03:38;20.50;49.70
35325;DHT22;35135;47.510;19.036;2023-02-18T06:06:04;20.50;49.80
35325;DHT22;35135;47.510;19.036;2023-02-18T06:08:30;20.50;49.70
35325;DHT22;35135;47.510;19.036;2023-02-18T06:10:56;20.50;49.70
35325;DHT22;35135;47.510;19.036;2023-02-18T06:13:22;20.50;49.90
35325;DHT22;35135;47.510;19.036;2023-02-18T06:15:50;20.50;49.70
35325;DHT22;35135;47.510;19.036;2023-02-18T06:18:16;20.50;49.70
35325;DHT22;35135;47.510;19.036;2023-02-18T06:20:42;20.50;49.70
35325;DHT22;35135;47.510;19.036;2023-02-18T06:23:08;20.50;49.70
35325;DHT22;35135;47.510;19.036;2023-02-18T06:25:33;20.50;49.70
35325;DHT22;35135;47.510;19.036;2023-02-18T06:27:59;20.50;49.60
35325;DHT22;35135;47.510;19.036;2023-02-18T06:30:25;20.50;49.70
35325;DHT22;35135;47.510;19.036;2023-02-18T06:32:50;20.50;49.70
35325;DHT22;35135;47.510;19.036;2023-02-18T06:35:16;20.50;49.70
35325;DHT22;35135;47.510;19.036;2023-02-18T06:37:42;20.50;49.70
35325;DHT22;35135;47.510;19.036;2023-02-18T06:40:09;20.50;49.70
35325;DHT22;35135;47.510;19.036;2023-02-18T06:42:34;20.60;49.70
35325;DHT22;35135;47.510;19.036;2023-02-18T06:45:00;20.50;49.70
35325;DHT22;35135;47.510;19.036;2023-02-18T06:47:26;20.60;50.40
35325;DHT22;35135;47.510;19.036;2023-02-18T06:49:51;20.60;49.90
35325;DHT22;35135;47.510;19.036;2023-02-18T06:52:17;20.60;49.70
35325;DHT22;35135;47.510;19.036;2023-02-18T06:54:43;20.60;49.60
35325;DHT22;35135;47.510;19.036;2023-02-18T06:57:08;20.60;49.60
35325;DHT22;35135;47.510;19.036;2023-02-18T06:59:34;20.60;50.00
35325;DHT22;35135;47.510;19.036;2023-02-18T07:02:00;20.60;50.00
35325;DHT22;35135;47.510;19.036;2023-02-18T07:04:26;20.70;50.00
35325;DHT22;35135;47.510;19.036;2023-02-18T07:06:51;20.70;49.90
35325;DHT22;35135;47.510;19.036;2023-02-18T07:09:17;20.70;49.90
35325;DHT22;35135;47.510;19.036;2023-02-18T07:11:42;20.70;49.70
35325;DHT22;35135;47.510;19.036;2023-02-18T07:14:08;20.70;49.70
35325;DHT22;35135;47.510;19.036;2023-02-18T07:16:34;20.70;49.90
35325;DHT22;35135;47.510;19.036;2023-02-18T07:18:59;20.70;49.80
35325;DHT22;35135;47.510;19.036;2023-02-18T07:21:25;20.70;50.00
35325;DHT22;35135;47.510;19.036;2023-02-18T07:23:51;20.70;49.90
35325;DHT22;35135;47.510;19.036;2023-02-18T07:26:16;20.70;49.80
35325;DHT22;35135;47.510;19.036;2023-02-18T07:28:42;20.70;49.80
35325;DHT22;35135;47.510;19.036;2023-02-18T07:31:08;20.80;49.90
35325;DHT22;35135;47.510;19.036;2023-02-18T07:33:34;20.70;49.70
35325;DHT22;35135;47.510;19.036;2023-02-18T07:36:01;20.70;49.70
35325;DHT22;35135;47.510;19.036;2023-02-18T07:38:28;20.80;49.80
35325;DHT22;35135;47.510;19.036;2023-02-18T07:40:54;20.80;49.80
35325;DHT22;35135;47.510;19.036;2023-02-18T07:43:20;20.80;49.80
35325;DHT22;35135;47.510;19.036;2023-02-18T07:45:46;20.80;50.30
35325;DHT22;35135;47.510;19.036;2023-02-18T07:48:12;20.80;50.00
35325;DHT22;35135;47.510;19.036;2023-02-18T07:50:41;20.80;50.20
35325;DHT22;35135;47.510;19.036;2023-02-18T07:53:08;20.80;49.90
35325;DHT22;35135;47.510;19.036;2023-02-18T07:55:35;20.80;50.10
35325;DHT22;35135;47.510;19.036;2023-02-18T07:58:25;20.90;50.10
35325;DHT22;35135;47.510;19.036;2023-02-18T08:00:51;20.90;50.00
35325;DHT22;35135;47.510;19.036;2023-02-18T08:03:25;20.90;49.80
35325;DHT22;35135;47.510;19.036;2023-02-18T08:05:51;20.90;49.80
35325;DHT22;35135;47.510;19.036;2023-02-18T08:08:21;20.90;49.90
35325;DHT22;35135;47.510;19.036;2023-02-18T08:10:48;20.90;50.10
35325;DHT22;35135;47.510;19.036;2023-02-18T08:13:14;20.90;49.90
35325;DHT22;35135;47.510;19.036;2023-02-18T08:15:39;20.90;50.00
35325;DHT22;35135;47.510;19.036;2023-02-18T08:18:08;20.90;49.80
35325;DHT22;35135;47.510;19.036;2023-02-18T08:20:37;21.00;49.70
35325;DHT22;35135;47.510;19.036;2023-02-18T08:23:05;21.00;49.80
35325;DHT22;35135;47.510;19.036;2023-02-18T08:25:31;20.90;49.50
35325;DHT22;35135;47.510;19.036;2023-02-18T08:27:58;20.90;49.40
35325;DHT22;35135;47.510;19.036;2023-02-18T08:30:25;20.90;49.60
35325;DHT22;35135;47.510;19.036;2023-02-18T08:32:51;20.90;49.60
35325;DHT22;35135;47.510;19.036;2023-02-18T08:35:17;21.00;49.70
35325;DHT22;35135;47.510;19.036;2023-02-18T08:37:43;21.00;49.80
35325;DHT22;35135;47.510;19.036;2023-02-18T08:40:11;21.00;49.80
35325;DHT22;35135;47.510;19.036;2023-02-18T08:42:38;21.00;49.80
35325;DHT22;35135;47.510;19.036;2023-02-18T08:45:04;21.00;49.80
35325;DHT22;35135;47.510;19.036;2023-02-18T08:47:30;21.00;49.70
35325;DHT22;35135;47.510;19.036;2023-02-18T08:49:56;21.00;49.60
35325;DHT22;35135;47.510;19.036;2023-02-18T08:52:22;21.10;49.70
35325;DHT22;35135;47.510;19.036;2023-02-18T08:54:48;21.10;49.60
35325;DHT22;35135;47.510;19.036;2023-02-18T08:57:13;21.10;49.60
35325;DHT22;35135;47.510;19.036;2023-02-18T08:59:39;21.10;49.50
35325;DHT22;35135;47.510;19.036;2023-02-18T09:02:05;21.10;49.40
35325;DHT22;35135;47.510;19.036;2023-02-18T09:04:31;21.10;49.40
35325;DHT22;35135;47.510;19.036;2023-02-18T09:06:57;21.10;49.30
35325;DHT22;35135;47.510;19.036;2023-02-18T09:09:23;21.10;49.30
35325;DHT22;35135;47.510;19.036;2023-02-18T09:11:49;21.10;49.30
35325;DHT22;35135;47.510;19.036;2023-02-18T09:14:14;21.10;49.30
35325;DHT22;35135;47.510;19.036;2023-02-18T09:16:41;21.10;49.30
35325;DHT22;35135;47.510;19.036;2023-02-18T09:19:07;21.10;49.40
35325;DHT22;35135;47.510;19.036;2023-02-18T09:21:33;21.10;49.40
35325;DHT22;35135;47.510;19.036;2023-02-18T09:23:59;21.10;49.30
35325;DHT22;35135;47.510;19.036;2023-02-18T09:26:25;21.10;49.40
35325;DHT22;35135;47.510;19.036;2023-02-18T09:28:53;21.10;49.40
35325;DHT22;35135;47.510;19.036;2023-02-18T09:31:21;21.10;49.50
35325;DHT22;35135;47.510;19.036;2023-02-18T09:33:53;21.10;49.40
35325;DHT22;35135;47.510;19.036;2023-02-18T09:36:19;21.20;49.40
35325;DHT22;35135;47.510;19.036;2023-02-18T09:38:45;21.20;49.40
35325;DHT22;35135;47.510;19.036;2023-02-18T09:41:37;21.20;49.40
35325;DHT22;35135;47.510;19.036;2023-02-18T09:44:20;21.20;49.40
35325;DHT22;35135;47.510;19.036;2023-02-18T09:46:59;21.20;49.50
35325;DHT22;35135;47.510;19.036;2023-02-18T09:49:29;21.20;49.40
35325;DHT22;35135;47.510;19.036;2023-02-18T09:52:21;21.20;49.60
35325;DHT22;35135;47.510;19.036;2023-02-18T09:54:51;21.20;49.60
35325;DHT22;35135;47.510;19.036;2023-02-18T09:57:26;21.20;49.50
35325;DHT22;35135;47.510;19.036;2023-02-18T09:59:59;21.20;49.60
35325;DHT22;35135;47.510;19.036;2023-02-18T10:02:26;21.20;49.50
35325;DHT22;35135;47.510;19.036;2023-02-18T10:04:52;21.20;49.50
35325;DHT22;35135;47.510;19.036;2023-02-18T10:07:32;21.20;49.50
35325;DHT22;35135;47.510;19.036;2023-02-18T10:10:04;21.20;49.40
35325;DHT22;35135;47.510;19.036;2023-02-18T10:12:34;21.30;49.50
35325;DHT22;35135;47.510;19.036;2023-02-18T10:15:00;21.30;49.50
35325;DHT22;35135;47.510;19.036;2023-02-18T10:17:29;21.30;49.40
35325;DHT22;35135;47.510;19.036;2023-02-18T10:19:57;21.30;49.40
35325;DHT22;35135;47.510;19.036;2023-02-18T10:22:24;21.30;49.40
35325;DHT22;35135;47.510;19.036;2023-02-18T10:24:57;21.30;49.50
35325;DHT22;35135;47.510;19.036;2023-02-18T10:27:24;21.30;49.30
35325;DHT22;35135;47.510;19.036;2023-02-18T10:29:51;21.30;49.40
35325;DHT22;35135;47.510;19.036;2023-02-18T10:32:36;21.30;49.40
35325;DHT22;35135;47.510;19.036;2023-02-18T10:35:18;21.30;49.30
35325;DHT22;35135;47.510;19.036;2023-02-18T10:46:08;21.40;49.40
35325;DHT22;35135;47.510;19.036;2023-02-18T10:51:27;21.40;49.20
35325;DHT22;35135;47.510;19.036;2023-02-18T10:53:53;21.40;49.20
35325;DHT22;35135;47.510;19.036;2023-02-18T10:56:38;21.40;49.20
35325;DHT22;35135;47.510;19.036;2023-02-18T10:59:22;21.40;49.20
35325;DHT22;35135;47.510;19.036;2023-02-18T11:02:04;21.40;49.10
35325;DHT22;35135;47.510;19.036;2023-02-18T11:04:38;21.50;49.20
35325;DHT22;35135;47.510;19.036;2023-02-18T11:07:14;21.50;49.10
35325;DHT22;35135;47.510;19.036;2023-02-18T11:10:28;21.50;49.20
35325;DHT22;35135;47.510;19.036;2023-02-18T11:12:47;21.50;49.10
35325;DHT22;35135;47.510;19.036;2023-02-18T11:17:41;21.50;49.20
35325;DHT22;35135;47.510;19.036;2023-02-18T11:23:17;21.50;49.20
35325;DHT22;35135;47.510;19.036;2023-02-18T11:26:05;21.50;49.20
35325;DHT22;35135;47.510;19.036;2023-02-18T11:28:48;21.50;49.20
35325;DHT22;35135;47.510;19.036;2023-02-18T11:31:31;21.50;49.20
35325;DHT22;35135;47.510;19.036;2023-02-18T11:34:00;21.50;49.20
35325;DHT22;35135;47.510;19.036;2023-02-18T11:36:30;21.50;49.20
35325;DHT22;35135;47.510;19.036;2023-02-18T11:39:22;21.50;49.20
35325;DHT22;35135;47.510;19.036;2023-02-18T11:41:58;21.50;49.10
35325;DHT22;35135;47.510;19.036;2023-02-18T11:47:05;21.50;49.10
35325;DHT22;35135;47.510;19.036;2023-02-18T11:49:33;21.60;49.10
35325;DHT22;35135;47.510;19.036;2023-02-18T11:52:23;21.60;49.20
35325;DHT22;35135;47.510;19.036;2023-02-18T11:57:26;21.60;49.10
35325;DHT22;35135;47.510;19.036;2023-02-18T11:59:54;21.60;49.10
35325;DHT22;35135;47.510;19.036;2023-02-18T12:02:29;21.50;49.00
35325;DHT22;35135;47.510;19.036;2023-02-18T12:05:22;21.60;49.10
35325;DHT22;35135;47.510;19.036;2023-02-18T12:08:04;21.60;49.10
35325;DHT22;35135;47.510;19.036;2023-02-18T12:10:35;21.60;49.00
35325;DHT22;35135;47.510;19.036;2023-02-18T12:18:19;21.70;49.00
35325;DHT22;35135;47.510;19.036;2023-02-18T12:23:49;21.60;48.90
35325;DHT22;35135;47.510;19.036;2023-02-18T12:26:39;21.60;49.00
35325;DHT22;35135;47.510;19.036;2023-02-18T12:34:38;21.70;48.90
35325;DHT22;35135;47.510;19.036;2023-02-18T12:50:54;21.70;49.00
35325;DHT22;35135;47.510;19.036;2023-02-18T12:53:34;21.70;48.90
35325;DHT22;35135;47.510;19.036;2023-02-18T13:15:02;21.80;48.80
35325;DHT22;35135;47.510;19.036;2023-02-18T13:17:34;21.80;48.80
35325;DHT22;35135;47.510;19.036;2023-02-18T13:22:40;21.80;48.80
35325;DHT22;35135;47.510;19.036;2023-02-18T13:25:12;21.80;48.80
35325;DHT22;35135;47.510;19.036;2023-02-18T13:28:11;21.80;48.70
35325;DHT22;35135;47.510;19.036;2023-02-18T13:39:16;21.80;48.70
35325;DHT22;35135;47.510;19.036;2023-02-18T13:41:47;21.80;48.70
35325;DHT22;35135;47.510;19.036;2023-02-18T13:46:50;21.80;48.70
35325;DHT22;35135;47.510;19.036;2023-02-18T13:49:37;21.80;48.70
35325;DHT22;35135;47.510;19.036;2023-02-18T13:52:04;21.80;48.70
35325;DHT22;35135;47.510;19.036;2023-02-18T13:54:41;21.80;48.70
35325;DHT22;35135;47.510;19.036;2023-02-18T13:57:19;21.80;48.70
35325;DHT22;35135;47.510;19.036;2023-02-18T13:59:49;21.80;48.70
35325;DHT22;35135;47.510;19.036;2023-02-18T14:12:42;21.80;48.80
35325;DHT22;35135;47.510;19.036;2023-02-18T14:26:16;21.80;48.90
35325;DHT22;35135;47.510;19.036;2023-02-18T14:36:33;21.80;48.90
35325;DHT22;35135;47.510;19.036;2023-02-18T14:39:20;21.80;49.10
35325;DHT22;35135;47.510;19.036;2023-02-18T14:50:04;21.80;49.00
35325;DHT22;35135;47.510;19.036;2023-02-18T14:52:51;21.90;49.10
35325;DHT22;35135;47.510;19.036;2023-02-18T14:55:18;21.90;49.00
35325;DHT22;35135;47.510;19.036;2023-02-18T14:58:07;21.90;49.00
35325;DHT22;35135;47.510;19.036;2023-02-18T15:00:41;21.90;49.00
35325;DHT22;35135;47.510;19.036;2023-02-18T15:03:14;21.90;48.90
35325;DHT22;35135;47.510;19.036;2023-02-18T15:05:40;21.80;48.90
35325;DHT22;35135;47.510;19.036;2023-02-18T15:08:14;21.80;49.00
35325;DHT22;35135;47.510;19.036;2023-02-18T15:10:46;21.80;49.00
35325;DHT22;35135;47.510;19.036;2023-02-18T15:13:34;21.80;49.10
35325;DHT22;35135;47.510;19.036;2023-02-18T15:16:11;21.80;49.10
35325;DHT22;35135;47.510;19.036;2023-02-18T15:18:53;21.80;49.00
35325;DHT22;35135;47.510;19.036;2023-02-18T15:21:28;21.80;49.00
35325;DHT22;35135;47.510;19.036;2023-02-18T15:23:55;21.80;49.60
35325;DHT22;35135;47.510;19.036;2023-02-18T15:26:25;21.70;48.90
35325;DHT22;35135;47.510;19.036;2023-02-18T15:29:01;21.80;49.00
35325;DHT22;35135;47.510;19.036;2023-02-18T15:31:29;21.70;48.90
35325;DHT22;35135;47.510;19.036;2023-02-18T15:33:55;21.70;49.00
35325;DHT22;35135;47.510;19.036;2023-02-18T15:36:21;21.70;48.90
35325;DHT22;35135;47.510;19.036;2023-02-18T15:38:47;21.70;48.90
35325;DHT22;35135;47.510;19.036;2023-02-18T15:41:16;21.70;49.00
35325;DHT22;35135;47.510;19.036;2023-02-18T15:43:53;21.70;48.90
35325;DHT22;35135;47.510;19.036;2023-02-18T15:46:20;21.70;48.90
35325;DHT22;35135;47.510;19.036;2023-02-18T15:48:48;21.70;49.00
35325;DHT22;35135;47.510;19.036;2023-02-18T15:51:27;21.70;49.00
35325;DHT22;35135;47.510;19.036;2023-02-18T15:53:58;21.70;48.90
35325;DHT22;35135;47.510;19.036;2023-02-18T15:56:33;21.70;48.90
35325;DHT22;35135;47.510;19.036;2023-02-18T15:59:27;21.70;49.00
35325;DHT22;35135;47.510;19.036;2023-02-18T16:04:36;21.60;49.00
35325;DHT22;35135;47.510;19.036;2023-02-18T16:07:17;21.60;49.00
35325;DHT22;35135;47.510;19.036;2023-02-18T16:09:43;21.60;49.10
35325;DHT22;35135;47.510;19.036;2023-02-18T16:12:36;21.60;49.10
35325;DHT22;35135;47.510;19.036;2023-02-18T16:15:01;21.60;49.20
35325;DHT22;35135;47.510;19.036;2023-02-18T16:17:29;21.60;49.20
35325;DHT22;35135;47.510;19.036;2023-02-18T16:20:21;21.60;49.30
35325;DHT22;35135;47.510;19.036;2023-02-18T16:22:52;21.60;49.30
35325;DHT22;35135;47.510;19.036;2023-02-18T16:25:26;21.60;49.30
35325;DHT22;35135;47.510;19.036;2023-02-18T16:28:44;21.60;49.30
35325;DHT22;35135;47.510;19.036;2023-02-18T16:30:44;21.60;49.90
35325;DHT22;35135;47.510;19.036;2023-02-18T16:33:10;21.60;49.40
35325;DHT22;35135;47.510;19.036;2023-02-18T16:35:36;21.60;49.30
35325;DHT22;35135;47.510;19.036;2023-02-18T16:38:02;21.70;49.40
35325;DHT22;35135;47.510;19.036;2023-02-18T16:40:36;21.60;49.40
35325;DHT22;35135;47.510;19.036;2023-02-18T16:43:14;21.60;49.40
35325;DHT22;35135;47.510;19.036;2023-02-18T16:45:43;21.60;49.30
35325;DHT22;35135;47.510;19.036;2023-02-18T16:48:38;21.60;49.40
35325;DHT22;35135;47.510;19.036;2023-02-18T16:51:15;21.60;49.40
35325;DHT22;35135;47.510;19.036;2023-02-18T16:53:42;21.60;49.40
35325;DHT22;35135;47.510;19.036;2023-02-18T16:56:19;21.60;49.40
35325;DHT22;35135;47.510;19.036;2023-02-18T16:58:45;21.60;49.40
35325;DHT22;35135;47.510;19.036;2023-02-18T17:03:57;21.60;49.40
35325;DHT22;35135;47.510;19.036;2023-02-18T17:06:23;21.60;49.40
35325;DHT22;35135;47.510;19.036;2023-02-18T17:08:49;21.60;49.40
35325;DHT22;35135;47.510;19.036;2023-02-18T17:11:21;21.60;49.40
35325;DHT22;35135;47.510;19.036;2023-02-18T17:13:48;21.60;49.40
35325;DHT22;35135;47.510;19.036;2023-02-18T17:16:14;21.60;49.40
35325;DHT22;35135;47.510;19.036;2023-02-18T17:18:40;21.60;49.40
35325;DHT22;35135;47.510;19.036;2023-02-18T17:21:18;21.60;49.40
35325;DHT22;35135;47.510;19.036;2023-02-18T17:23:45;21.60;49.40
35325;DHT22;35135;47.510;19.036;2023-02-18T17:26:26;21.60;49.40
35325;DHT22;35135;47.510;19.036;2023-02-18T17:28:54;21.60;49.30
35325;DHT22;35135;47.510;19.036;2023-02-18T17:31:32;21.60;49.30
35325;DHT22;35135;47.510;19.036;2023-02-18T17:34:02;21.60;49.30
35325;DHT22;35135;47.510;19.036;2023-02-18T17:36:29;21.60;49.30
35325;DHT22;35135;47.510;19.036;2023-02-18T17:38:55;21.60;49.50
35325;DHT22;35135;47.510;19.036;2023-02-18T17:41:21;21.60;49.40
35325;DHT22;35135;47.510;19.036;2023-02-18T17:43:47;21.70;49.60
35325;DHT22;35135;47.510;19.036;2023-02-18T17:46:15;21.60;49.50
35325;DHT22;35135;47.510;19.036;2023-02-18T17:48:44;21.70;49.70
35325;DHT22;35135;47.510;19.036;2023-02-18T17:51:28;21.70;49.80
35325;DHT22;35135;47.510;19.036;2023-02-18T17:53:54;21.70;50.00
35325;DHT22;35135;47.510;19.036;2023-02-18T17:56:21;21.70;50.10
35325;DHT22;35135;47.510;19.036;2023-02-18T17:58:47;21.60;50.00
35325;DHT22;35135;47.510;19.036;2023-02-18T18:01:13;21.60;50.10
35325;DHT22;35135;47.510;19.036;2023-02-18T18:03:40;21.70;50.10
35325;DHT22;35135;47.510;19.036;2023-02-18T18:06:16;21.70;50.20
35325;DHT22;35135;47.510;19.036;2023-02-18T18:08:42;21.70;50.80
35325;DHT22;35135;47.510;19.036;2023-02-18T18:11:13;21.60;50.70
35325;DHT22;35135;47.510;19.036;2023-02-18T18:13:39;21.70;51.30
35325;DHT22;35135;47.510;19.036;2023-02-18T18:16:05;21.70;51.00
35325;DHT22;35135;47.510;19.036;2023-02-18T18:18:31;21.70;51.40
35325;DHT22;35135;47.510;19.036;2023-02-18T18:20:59;21.70;51.00
35325;DHT22;35135;47.510;19.036;2023-02-18T18:23:25;21.70;51.40